Current Weather

Senou

Senou, Mali (GABS)

Report from: Wednesday, April 24, 2024 6:30 PM GMT
Current time: Wednesday, April 24, 2024 7:09 PM GMT

Nearby weather – Weather history – Daily summaries
Weather forecast

Temperature40.0°C (104.0°F)
Heat index37.7°C (99.9°F)
Dew point7.0°C (44.6°F)
Winds 2 kts (1 m/s, 2.3 mph) Vrb
Winds variableWinds variable
Clouds Sky clear
Altimeter29.74 in.Hg (1007 mB)
Relative humidity14 %
Density altitude3,165 ft. (965 m)
Remarks Ceiling and visibility OK
No significant changes expected in the next two hours
Flight conditions Visual Meteorological Conditions
Raw dataGABS 241830Z VRB02KT CAVOK 40/07 Q1007 NOSIG
An error has occurred. This application may no longer respond until reloaded. Reload 🗙